sensor_id;sensor_type;location;lat;lon;timestamp;pressure;altitude;pressure_sealevel;temperature;humidity
13124;BME280;6627;50.920;12.050;2023-03-21T00:00:54;98893.94;;;17.31;51.74
13124;BME280;6627;50.920;12.050;2023-03-21T00:03:21;98989.53;;;18.46;49.53
13124;BME280;6627;50.920;12.050;2023-03-21T00:05:51;98948.56;;;18.25;49.11
13124;BME280;6627;50.920;12.050;2023-03-21T00:08:19;98910.28;;;17.88;49.23
13124;BME280;6627;50.920;12.050;2023-03-21T00:10:54;98809.44;;;16.93;50.61
13124;BME280;6627;50.920;12.050;2023-03-21T00:13:21;98758.97;;;16.45;51.29
13124;BME280;6627;50.920;12.050;2023-03-21T00:15:48;98841.34;;;17.25;50.73
13124;BME280;6627;50.920;12.050;2023-03-21T00:18:20;98944.69;;;18.14;49.30
13124;BME280;6627;50.920;12.050;2023-03-21T00:20:57;98794.38;;;16.86;50.71
13124;BME280;6627;50.920;12.050;2023-03-21T00:23:29;98894.84;;;17.59;50.51
13124;BME280;6627;50.920;12.050;2023-03-21T00:25:57;99015.63;;;18.80;48.71
13124;BME280;6627;50.920;12.050;2023-03-21T00:28:26;98878.22;;;18.17;47.49
13124;BME280;6627;50.920;12.050;2023-03-21T00:30:56;98828.56;;;17.54;49.31
13124;BME280;6627;50.920;12.050;2023-03-21T00:33:24;98873.31;;;17.58;50.10
13124;BME280;6627;50.920;12.050;2023-03-21T00:35:52;98957.03;;;18.60;48.14
13124;BME280;6627;50.920;12.050;2023-03-21T00:38:22;98831.63;;;17.64;48.93
13124;BME280;6627;50.920;12.050;2023-03-21T00:40:50;98888.56;;;17.96;49.23
13124;BME280;6627;50.920;12.050;2023-03-21T00:43:17;98911.13;;;18.45;47.64
13124;BME280;6627;50.920;12.050;2023-03-21T00:45:49;98815.31;;;17.56;48.73
13124;BME280;6627;50.920;12.050;2023-03-21T00:48:17;98834.13;;;17.57;49.21
13124;BME280;6627;50.920;12.050;2023-03-21T00:50:45;98869.63;;;17.90;48.68
13124;BME280;6627;50.920;12.050;2023-03-21T00:53:13;98817.63;;;17.29;50.04
13124;BME280;6627;50.920;12.050;2023-03-21T00:55:42;98815.13;;;17.24;50.61
13124;BME280;6627;50.920;12.050;2023-03-21T00:58:10;98950.75;;;18.60;48.33
13124;BME280;6627;50.920;12.050;2023-03-21T01:00:38;98816.91;;;17.57;49.04
13124;BME280;6627;50.920;12.050;2023-03-21T01:03:07;98900.53;;;18.44;47.75
13124;BME280;6627;50.920;12.050;2023-03-21T01:05:39;98935.19;;;18.64;47.84
13124;BME280;6627;50.920;12.050;2023-03-21T01:08:26;98919.16;;;18.78;46.66
13124;BME280;6627;50.920;12.050;2023-03-21T01:10:56;98774.75;;;17.86;46.96
13124;BME280;6627;50.920;12.050;2023-03-21T01:13:26;98707.75;;;17.43;46.86
13124;BME280;6627;50.920;12.050;2023-03-21T01:15:56;98764.19;;;18.00;45.75
13124;BME280;6627;50.920;12.050;2023-03-21T01:18:26;98815.44;;;18.12;46.47
13124;BME280;6627;50.920;12.050;2023-03-21T01:20:56;98791.09;;;18.38;44.70
13124;BME280;6627;50.920;12.050;2023-03-21T01:23:26;98846.47;;;18.88;44.47
13124;BME280;6627;50.920;12.050;2023-03-21T01:25:56;98840.13;;;19.00;44.06
13124;BME280;6627;50.920;12.050;2023-03-21T01:28:26;98755.53;;;18.58;44.07
13124;BME280;6627;50.920;12.050;2023-03-21T01:30:54;98829.13;;;19.00;43.89
13124;BME280;6627;50.920;12.050;2023-03-21T01:33:22;98778.34;;;18.62;44.47
13124;BME280;6627;50.920;12.050;2023-03-21T01:35:49;98781.09;;;18.62;44.78
13124;BME280;6627;50.920;12.050;2023-03-21T01:38:17;98735.94;;;18.12;45.85
13124;BME280;6627;50.920;12.050;2023-03-21T01:40:47;98852.84;;;19.24;44.51
13124;BME280;6627;50.920;12.050;2023-03-21T01:43:26;98889.56;;;19.82;43.04
13124;BME280;6627;50.920;12.050;2023-03-21T01:46:37;98789.72;;;18.76;44.72
13124;BME280;6627;50.920;12.050;2023-03-21T01:49:15;98629.00;;;17.24;47.12
13124;BME280;6627;50.920;12.050;2023-03-21T01:51:50;98691.91;;;17.49;47.77
13124;BME280;6627;50.920;12.050;2023-03-21T01:54:23;98695.22;;;17.70;46.67
13124;BME280;6627;50.920;12.050;2023-03-21T01:56:55;98682.47;;;17.34;48.05
13124;BME280;6627;50.920;12.050;2023-03-21T01:59:30;98758.28;;;17.58;48.69
13124;BME280;6627;50.920;12.050;2023-03-21T02:02:04;98889.75;;;18.51;47.65
13124;BME280;6627;50.920;12.050;2023-03-21T02:04:37;98793.41;;;18.08;47.20
13124;BME280;6627;50.920;12.050;2023-03-21T02:07:08;98801.25;;;18.38;46.77
13124;BME280;6627;50.920;12.050;2023-03-21T02:09:43;98824.00;;;18.38;47.27
13124;BME280;6627;50.920;12.050;2023-03-21T02:12:12;98875.59;;;18.93;46.16
13124;BME280;6627;50.920;12.050;2023-03-21T02:14:42;98719.59;;;17.47;48.39
13124;BME280;6627;50.920;12.050;2023-03-21T02:17:18;98815.03;;;18.26;47.68
13124;BME280;6627;50.920;12.050;2023-03-21T02:20:29;98732.66;;;17.38;49.12
13124;BME280;6627;50.920;12.050;2023-03-21T02:29:49;98828.97;;;18.21;48.23
13124;BME280;6627;50.920;12.050;2023-03-21T02:32:35;98958.97;;;19.95;45.16
13124;BME280;6627;50.920;12.050;2023-03-21T02:35:25;98739.19;;;17.74;48.76
13124;BME280;6627;50.920;12.050;2023-03-21T02:38:03;98882.84;;;18.69;48.28
13124;BME280;6627;50.920;12.050;2023-03-21T02:40:39;98798.41;;;18.34;47.64
13124;BME280;6627;50.920;12.050;2023-03-21T02:43:15;98815.13;;;18.29;47.96
13124;BME280;6627;50.920;12.050;2023-03-21T02:45:50;98765.94;;;17.93;48.36
13124;BME280;6627;50.920;12.050;2023-03-21T02:48:25;98745.25;;;17.67;48.93
13124;BME280;6627;50.920;12.050;2023-03-21T02:50:58;98717.41;;;17.53;49.07
13124;BME280;6627;50.920;12.050;2023-03-21T02:53:33;98881.09;;;18.93;46.94
13124;BME280;6627;50.920;12.050;2023-03-21T02:56:04;98820.47;;;18.54;47.05
13124;BME280;6627;50.920;12.050;2023-03-21T02:58:37;98801.31;;;18.26;47.53
13124;BME280;6627;50.920;12.050;2023-03-21T03:01:07;98756.44;;;17.62;49.26
13124;BME280;6627;50.920;12.050;2023-03-21T03:03:34;98982.47;;;19.61;47.14
13124;BME280;6627;50.920;12.050;2023-03-21T03:06:15;98846.66;;;18.95;46.43
13124;BME280;6627;50.920;12.050;2023-03-21T03:09:17;98881.19;;;19.28;45.96
13124;BME280;6627;50.920;12.050;2023-03-21T03:11:55;98773.84;;;18.54;46.45
13124;BME280;6627;50.920;12.050;2023-03-21T03:14:40;98889.25;;;19.36;45.57
13124;BME280;6627;50.920;12.050;2023-03-21T03:17:24;98777.09;;;18.44;46.95
13124;BME280;6627;50.920;12.050;2023-03-21T03:20:14;98773.22;;;18.45;46.76
13124;BME280;6627;50.920;12.050;2023-03-21T03:22:55;98931.50;;;19.79;45.39
13124;BME280;6627;50.920;12.050;2023-03-21T03:25:31;98722.59;;;18.26;46.86
13124;BME280;6627;50.920;12.050;2023-03-21T03:28:04;98734.00;;;17.84;48.79
13124;BME280;6627;50.920;12.050;2023-03-21T03:30:35;98760.81;;;17.91;48.90
13124;BME280;6627;50.920;12.050;2023-03-21T03:33:05;98950.09;;;19.38;47.20
13124;BME280;6627;50.920;12.050;2023-03-21T03:35:34;98834.00;;;18.90;46.24
13124;BME280;6627;50.920;12.050;2023-03-21T03:38:05;98663.91;;;17.27;48.45
13124;BME280;6627;50.920;12.050;2023-03-21T03:40:39;98787.06;;;18.20;47.70
13124;BME280;6627;50.920;12.050;2023-03-21T03:43:13;98717.13;;;17.70;48.03
13124;BME280;6627;50.920;12.050;2023-03-21T03:45:46;98843.34;;;18.46;47.92
13124;BME280;6627;50.920;12.050;2023-03-21T03:48:23;98916.97;;;19.47;45.99
13124;BME280;6627;50.920;12.050;2023-03-21T03:50:56;98903.56;;;19.77;44.23
13124;BME280;6627;50.920;12.050;2023-03-21T03:53:29;98669.16;;;17.88;46.74
13124;BME280;6627;50.920;12.050;2023-03-21T03:56:01;98624.50;;;17.04;48.91
13124;BME280;6627;50.920;12.050;2023-03-21T03:58:30;98724.00;;;17.76;48.60
13124;BME280;6627;50.920;12.050;2023-03-21T04:00:57;98685.56;;;17.32;49.70
13124;BME280;6627;50.920;12.050;2023-03-21T04:03:25;98873.66;;;18.77;47.43
13124;BME280;6627;50.920;12.050;2023-03-21T04:05:53;98779.38;;;18.26;47.28
13124;BME280;6627;50.920;12.050;2023-03-21T04:08:20;98685.84;;;16.90;50.03
13124;BME280;6627;50.920;12.050;2023-03-21T04:10:48;98758.47;;;17.65;48.81
13124;BME280;6627;50.920;12.050;2023-03-21T04:13:16;98732.66;;;17.66;48.51
13124;BME280;6627;50.920;12.050;2023-03-21T04:15:44;98730.69;;;17.38;49.24
13124;BME280;6627;50.920;12.050;2023-03-21T04:18:12;98671.13;;;16.95;49.97
13124;BME280;6627;50.920;12.050;2023-03-21T04:20:39;98747.84;;;17.35;50.20
13124;BME280;6627;50.920;12.050;2023-03-21T04:23:06;98929.91;;;18.99;47.48
13124;BME280;6627;50.920;12.050;2023-03-21T04:25:34;98879.50;;;18.92;46.42
13124;BME280;6627;50.920;12.050;2023-03-21T04:28:02;98735.72;;;17.36;49.65
13124;BME280;6627;50.920;12.050;2023-03-21T04:30:30;98818.72;;;17.89;49.17
13124;BME280;6627;50.920;12.050;2023-03-21T04:32:59;98966.34;;;19.44;47.12
13124;BME280;6627;50.920;12.050;2023-03-21T04:35:26;98870.53;;;18.95;46.10
13124;BME280;6627;50.920;12.050;2023-03-21T04:37:54;98953.03;;;19.77;44.96
13124;BME280;6627;50.920;12.050;2023-03-21T04:40:22;98693.03;;;18.04;46.14
13124;BME280;6627;50.920;12.050;2023-03-21T04:42:51;98649.38;;;16.99;49.30
13124;BME280;6627;50.920;12.050;2023-03-21T04:45:18;98867.53;;;18.84;46.98
13124;BME280;6627;50.920;12.050;2023-03-21T04:47:46;98892.09;;;19.24;46.48
13124;BME280;6627;50.920;12.050;2023-03-21T04:50:14;98822.84;;;18.83;46.06
13124;BME280;6627;50.920;12.050;2023-03-21T04:52:41;98657.97;;;17.25;48.38
13124;BME280;6627;50.920;12.050;2023-03-21T04:55:09;98729.94;;;17.66;48.91
13124;BME280;6627;50.920;12.050;2023-03-21T04:57:37;98780.75;;;18.04;48.56
13124;BME280;6627;50.920;12.050;2023-03-21T05:00:08;98705.59;;;17.49;48.86
13124;BME280;6627;50.920;12.050;2023-03-21T05:02:36;98803.38;;;18.29;47.73
13124;BME280;6627;50.920;12.050;2023-03-21T05:05:06;98732.22;;;17.76;47.87
13124;BME280;6627;50.920;12.050;2023-03-21T05:07:37;98726.13;;;17.71;48.10
13124;BME280;6627;50.920;12.050;2023-03-21T05:10:07;98793.75;;;18.07;48.41
13124;BME280;6627;50.920;12.050;2023-03-21T05:12:36;98702.38;;;17.47;48.33
13124;BME280;6627;50.920;12.050;2023-03-21T05:15:05;98741.91;;;17.61;48.41
13124;BME280;6627;50.920;12.050;2023-03-21T05:17:33;98745.66;;;17.81;47.74
13124;BME280;6627;50.920;12.050;2023-03-21T05:20:00;98805.34;;;18.16;48.15
13124;BME280;6627;50.920;12.050;2023-03-21T05:22:30;98742.50;;;17.67;48.29
13124;BME280;6627;50.920;12.050;2023-03-21T05:25:07;98798.78;;;18.05;48.22
13124;BME280;6627;50.920;12.050;2023-03-21T05:27:36;98641.75;;;16.55;50.37
13124;BME280;6627;50.920;12.050;2023-03-21T05:30:07;98723.47;;;17.18;49.48
13124;BME280;6627;50.920;12.050;2023-03-21T05:32:35;98699.09;;;16.76;51.19
13124;BME280;6627;50.920;12.050;2023-03-21T05:35:04;98816.69;;;17.74;49.56
13124;BME280;6627;50.920;12.050;2023-03-21T05:37:32;98801.19;;;17.54;49.69
13124;BME280;6627;50.920;12.050;2023-03-21T05:39:59;98782.25;;;17.49;49.11
13124;BME280;6627;50.920;12.050;2023-03-21T05:42:27;98844.31;;;18.09;48.90
13124;BME280;6627;50.920;12.050;2023-03-21T05:44:54;98776.44;;;17.50;49.50
13124;BME280;6627;50.920;12.050;2023-03-21T05:47:21;98823.13;;;17.94;48.95
13124;BME280;6627;50.920;12.050;2023-03-21T05:49:48;98729.16;;;17.13;49.13
13124;BME280;6627;50.920;12.050;2023-03-21T05:52:16;98850.81;;;18.17;48.76
13124;BME280;6627;50.920;12.050;2023-03-21T05:54:44;98896.28;;;18.74;47.53
13124;BME280;6627;50.920;12.050;2023-03-21T05:57:12;98897.91;;;19.07;45.99
13124;BME280;6627;50.920;12.050;2023-03-21T05:59:39;98876.19;;;18.70;46.99
13124;BME280;6627;50.920;12.050;2023-03-21T06:02:06;98812.50;;;18.49;46.05
13124;BME280;6627;50.920;12.050;2023-03-21T06:04:33;98674.41;;;17.13;48.86
13124;BME280;6627;50.920;12.050;2023-03-21T06:07:00;98770.59;;;17.52;49.24
13124;BME280;6627;50.920;12.050;2023-03-21T06:09:28;98830.16;;;18.35;47.37
13124;BME280;6627;50.920;12.050;2023-03-21T06:11:57;98715.91;;;17.27;48.34
13124;BME280;6627;50.920;12.050;2023-03-21T06:14:24;98776.34;;;17.34;49.81
13124;BME280;6627;50.920;12.050;2023-03-21T06:16:51;98947.81;;;19.09;47.36
13124;BME280;6627;50.920;12.050;2023-03-21T06:19:20;98908.00;;;18.87;47.37
13124;BME280;6627;50.920;12.050;2023-03-21T06:21:47;98722.38;;;17.35;48.19
13124;BME280;6627;50.920;12.050;2023-03-21T06:24:15;98874.13;;;18.95;45.48
13124;BME280;6627;50.920;12.050;2023-03-21T06:26:44;98887.91;;;18.99;46.13
13124;BME280;6627;50.920;12.050;2023-03-21T06:29:12;98868.00;;;19.02;45.41
13124;BME280;6627;50.920;12.050;2023-03-21T06:31:39;98888.09;;;19.06;46.25
13124;BME280;6627;50.920;12.050;2023-03-21T06:34:07;98920.16;;;19.65;44.40
13124;BME280;6627;50.920;12.050;2023-03-21T06:36:35;98846.47;;;19.20;44.63
13124;BME280;6627;50.920;12.050;2023-03-21T06:39:03;98760.13;;;18.54;45.63
13124;BME280;6627;50.920;12.050;2023-03-21T06:41:32;98882.88;;;19.32;45.08
13124;BME280;6627;50.920;12.050;2023-03-21T06:43:59;98846.94;;;19.22;44.93
13124;BME280;6627;50.920;12.050;2023-03-21T06:46:29;98671.44;;;17.58;47.85
13124;BME280;6627;50.920;12.050;2023-03-21T06:48:56;98737.25;;;18.02;46.93
13124;BME280;6627;50.920;12.050;2023-03-21T06:51:24;98690.53;;;17.71;47.30
13124;BME280;6627;50.920;12.050;2023-03-21T06:53:51;98700.81;;;18.02;45.85
13124;BME280;6627;50.920;12.050;2023-03-21T06:56:18;98789.28;;;18.30;46.68
13124;BME280;6627;50.920;12.050;2023-03-21T06:58:46;99002.22;;;20.49;43.52
13124;BME280;6627;50.920;12.050;2023-03-21T07:01:13;98906.94;;;19.86;43.81
13124;BME280;6627;50.920;12.050;2023-03-21T07:03:41;98979.53;;;20.36;43.31
13124;BME280;6627;50.920;12.050;2023-03-21T07:06:10;98918.97;;;19.98;43.82
13124;BME280;6627;50.920;12.050;2023-03-21T07:08:39;98711.63;;;18.89;43.39
13124;BME280;6627;50.920;12.050;2023-03-21T07:11:08;98886.66;;;20.10;42.64
13124;BME280;6627;50.920;12.050;2023-03-21T07:13:35;98794.09;;;19.28;44.45
13124;BME280;6627;50.920;12.050;2023-03-21T07:16:03;98819.38;;;19.69;43.38
13124;BME280;6627;50.920;12.050;2023-03-21T07:18:31;98741.03;;;19.05;43.96
13124;BME280;6627;50.920;12.050;2023-03-21T07:21:00;98763.47;;;19.26;44.08
13124;BME280;6627;50.920;12.050;2023-03-21T07:23:27;98773.03;;;19.32;43.82
13124;BME280;6627;50.920;12.050;2023-03-21T07:25:55;98827.72;;;19.57;43.86
13124;BME280;6627;50.920;12.050;2023-03-21T07:28:22;98896.69;;;20.22;42.84
13124;BME280;6627;50.920;12.050;2023-03-21T07:30:55;98791.75;;;19.62;42.96
13124;BME280;6627;50.920;12.050;2023-03-21T07:33:24;98726.25;;;18.94;43.89
13124;BME280;6627;50.920;12.050;2023-03-21T07:35:53;98863.13;;;20.13;42.74
13124;BME280;6627;50.920;12.050;2023-03-21T07:38:24;98771.97;;;19.56;42.98
13124;BME280;6627;50.920;12.050;2023-03-21T07:40:51;98863.69;;;20.22;42.54
13124;BME280;6627;50.920;12.050;2023-03-21T07:43:20;98766.47;;;19.56;42.94
13124;BME280;6627;50.920;12.050;2023-03-21T07:45:47;98759.97;;;19.45;43.04
13124;BME280;6627;50.920;12.050;2023-03-21T07:48:14;98931.19;;;20.74;42.33
13124;BME280;6627;50.920;12.050;2023-03-21T07:50:42;98851.09;;;20.21;42.21
13124;BME280;6627;50.920;12.050;2023-03-21T07:53:09;98625.19;;;18.80;43.31
13124;BME280;6627;50.920;12.050;2023-03-21T07:55:38;98673.50;;;18.84;44.35
13124;BME280;6627;50.920;12.050;2023-03-21T07:58:05;98849.50;;;20.01;43.99
13124;BME280;6627;50.920;12.050;2023-03-21T08:00:33;98982.53;;;21.05;42.97
13124;BME280;6627;50.920;12.050;2023-03-21T08:03:00;98859.19;;;20.72;41.78
13124;BME280;6627;50.920;12.050;2023-03-21T08:05:32;98958.03;;;21.42;40.60
13124;BME280;6627;50.920;12.050;2023-03-21T08:08:00;98706.59;;;19.62;42.91
13124;BME280;6627;50.920;12.050;2023-03-21T08:10:28;98736.31;;;19.60;43.14
13124;BME280;6627;50.920;12.050;2023-03-21T08:12:57;98832.25;;;20.62;41.70
13124;BME280;6627;50.920;12.050;2023-03-21T08:15:24;98990.50;;;21.53;41.23
13124;BME280;6627;50.920;12.050;2023-03-21T08:17:51;98822.25;;;20.73;40.92
13124;BME280;6627;50.920;12.050;2023-03-21T08:20:21;98770.19;;;20.22;42.05
13124;BME280;6627;50.920;12.050;2023-03-21T08:22:49;98898.69;;;21.26;41.22
13124;BME280;6627;50.920;12.050;2023-03-21T08:25:18;98728.59;;;20.04;42.28
13124;BME280;6627;50.920;12.050;2023-03-21T08:27:47;98723.13;;;19.85;42.64
13124;BME280;6627;50.920;12.050;2023-03-21T08:30:19;98822.00;;;20.59;42.26
13124;BME280;6627;50.920;12.050;2023-03-21T08:32:47;98750.16;;;19.83;43.37
13124;BME280;6627;50.920;12.050;2023-03-21T08:35:17;98807.69;;;20.11;43.44
13124;BME280;6627;50.920;12.050;2023-03-21T08:37:45;98782.66;;;20.16;42.74
13124;BME280;6627;50.920;12.050;2023-03-21T08:40:15;98765.00;;;19.98;42.73
13124;BME280;6627;50.920;12.050;2023-03-21T08:42:43;98845.59;;;20.21;43.41
13124;BME280;6627;50.920;12.050;2023-03-21T08:45:13;98791.38;;;20.22;43.13
13124;BME280;6627;50.920;12.050;2023-03-21T08:47:42;98833.44;;;20.41;42.98
13124;BME280;6627;50.920;12.050;2023-03-21T08:50:13;98762.34;;;20.01;42.99
13124;BME280;6627;50.920;12.050;2023-03-21T08:52:40;98943.31;;;21.12;42.94
13124;BME280;6627;50.920;12.050;2023-03-21T08:55:09;98953.13;;;21.32;42.25
13124;BME280;6627;50.920;12.050;2023-03-21T08:57:36;98769.00;;;20.42;42.36
13124;BME280;6627;50.920;12.050;2023-03-21T09:00:06;98904.38;;;20.90;43.07
13124;BME280;6627;50.920;12.050;2023-03-21T09:02:38;99097.09;;;22.63;41.15
13124;BME280;6627;50.920;12.050;2023-03-21T09:05:08;98907.06;;;21.56;41.16
13124;BME280;6627;50.920;12.050;2023-03-21T09:07:37;98874.88;;;21.14;42.24
13124;BME280;6627;50.920;12.050;2023-03-21T09:10:07;98961.16;;;21.90;41.86
13124;BME280;6627;50.920;12.050;2023-03-21T09:12:37;98771.38;;;20.44;42.92
13124;BME280;6627;50.920;12.050;2023-03-21T09:15:07;98802.28;;;20.57;43.44
13124;BME280;6627;50.920;12.050;2023-03-21T09:17:35;98884.16;;;21.06;43.50
13124;BME280;6627;50.920;12.050;2023-03-21T09:20:05;98805.59;;;20.66;42.98
13124;BME280;6627;50.920;12.050;2023-03-21T09:22:38;98903.66;;;21.39;42.43
13124;BME280;6627;50.920;12.050;2023-03-21T09:25:06;98993.22;;;22.25;41.20
13124;BME280;6627;50.920;12.050;2023-03-21T09:27:36;98997.28;;;22.31;41.13
13124;BME280;6627;50.920;12.050;2023-03-21T09:30:05;98878.03;;;21.62;42.14
13124;BME280;6627;50.920;12.050;2023-03-21T09:32:34;98911.44;;;21.83;41.60
13124;BME280;6627;50.920;12.050;2023-03-21T09:35:03;98941.91;;;22.21;41.30
13124;BME280;6627;50.920;12.050;2023-03-21T09:37:31;98743.63;;;20.76;42.72
13124;BME280;6627;50.920;12.050;2023-03-21T09:40:00;98819.94;;;21.25;42.33
13124;BME280;6627;50.920;12.050;2023-03-21T09:42:44;98772.94;;;20.87;42.90
13124;BME280;6627;50.920;12.050;2023-03-21T09:45:18;98827.72;;;21.19;42.69
13124;BME280;6627;50.920;12.050;2023-03-21T09:47:49;98848.75;;;21.54;41.89
13124;BME280;6627;50.920;12.050;2023-03-21T09:50:23;98876.66;;;21.75;41.17
13124;BME280;6627;50.920;12.050;2023-03-21T09:52:56;98813.44;;;21.63;40.73
13124;BME280;6627;50.920;12.050;2023-03-21T09:55:29;99000.91;;;22.69;40.49
13124;BME280;6627;50.920;12.050;2023-03-21T09:58:05;98841.88;;;21.67;41.40
13124;BME280;6627;50.920;12.050;2023-03-21T10:00:36;98924.97;;;21.96;41.70
13124;BME280;6627;50.920;12.050;2023-03-21T10:03:16;98832.31;;;21.87;40.79
13124;BME280;6627;50.920;12.050;2023-03-21T10:05:46;98854.28;;;22.10;40.27
13124;BME280;6627;50.920;12.050;2023-03-21T10:08:19;98941.91;;;22.51;40.34
13124;BME280;6627;50.920;12.050;2023-03-21T10:10:54;98871.91;;;22.32;39.74
13124;BME280;6627;50.920;12.050;2023-03-21T10:13:26;98811.22;;;21.72;40.68
13124;BME280;6627;50.920;12.050;2023-03-21T10:15:57;99009.66;;;23.46;38.87
13124;BME280;6627;50.920;12.050;2023-03-21T10:18:29;98991.56;;;23.52;38.56
13124;BME280;6627;50.920;12.050;2023-03-21T10:20:57;98920.88;;;23.10;39.06
13124;BME280;6627;50.920;12.050;2023-03-21T10:23:27;98965.59;;;23.60;38.39
13124;BME280;6627;50.920;12.050;2023-03-21T10:26:02;98736.88;;;22.13;39.80
13124;BME280;6627;50.920;12.050;2023-03-21T10:28:36;98888.47;;;23.03;39.64
13124;BME280;6627;50.920;12.050;2023-03-21T10:31:07;98751.75;;;22.05;40.38
13124;BME280;6627;50.920;12.050;2023-03-21T10:33:38;98879.88;;;23.12;39.05
13124;BME280;6627;50.920;12.050;2023-03-21T10:36:11;98966.47;;;23.71;38.63
13124;BME280;6627;50.920;12.050;2023-03-21T10:38:46;98738.69;;;22.35;39.31
13124;BME280;6627;50.920;12.050;2023-03-21T10:41:15;98873.72;;;23.33;38.12
13124;BME280;6627;50.920;12.050;2023-03-21T10:43:43;99006.19;;;23.97;38.87
13124;BME280;6627;50.920;12.050;2023-03-21T10:46:15;98988.09;;;24.10;37.47
13124;BME280;6627;50.920;12.050;2023-03-21T10:48:49;98915.66;;;23.94;37.02
13124;BME280;6627;50.920;12.050;2023-03-21T10:51:24;98532.03;;;21.75;38.43
13124;BME280;6627;50.920;12.050;2023-03-21T10:53:57;98880.78;;;23.78;37.25
13124;BME280;6627;50.920;12.050;2023-03-21T10:56:30;98876.47;;;23.84;37.36
13124;BME280;6627;50.920;12.050;2023-03-21T10:59:00;98782.50;;;23.29;37.58
13124;BME280;6627;50.920;12.050;2023-03-21T11:01:34;98598.44;;;22.45;38.02
13124;BME280;6627;50.920;12.050;2023-03-21T11:04:07;98744.06;;;23.10;38.21
13124;BME280;6627;50.920;12.050;2023-03-21T11:06:38;98560.31;;;22.13;37.92
13124;BME280;6627;50.920;12.050;2023-03-21T11:09:13;98682.66;;;22.79;38.15
13124;BME280;6627;50.920;12.050;2023-03-21T11:11:51;98595.25;;;22.42;37.99
13124;BME280;6627;50.920;12.050;2023-03-21T11:14:35;98857.56;;;23.97;37.49
13124;BME280;6627;50.920;12.050;2023-03-21T11:17:21;98674.50;;;22.97;37.51
13124;BME280;6627;50.920;12.050;2023-03-21T11:19:51;98665.59;;;22.63;38.47
13124;BME280;6627;50.920;12.050;2023-03-21T11:22:22;98778.03;;;23.69;36.92
13124;BME280;6627;50.920;12.050;2023-03-21T11:24:53;98725.66;;;23.35;37.44
13124;BME280;6627;50.920;12.050;2023-03-21T11:27:26;98612.63;;;22.47;38.13
13124;BME280;6627;50.920;12.050;2023-03-21T11:29:56;98710.28;;;23.38;36.93
13124;BME280;6627;50.920;12.050;2023-03-21T11:32:30;98729.28;;;23.47;37.17
13124;BME280;6627;50.920;12.050;2023-03-21T11:35:03;98718.25;;;23.47;37.01
13124;BME280;6627;50.920;12.050;2023-03-21T11:37:37;98872.88;;;24.53;36.31
13124;BME280;6627;50.920;12.050;2023-03-21T11:40:18;98872.84;;;24.57;36.19
13124;BME280;6627;50.920;12.050;2023-03-21T11:42:50;98731.06;;;23.83;36.64
13124;BME280;6627;50.920;12.050;2023-03-21T11:45:21;98841.97;;;24.40;36.45
13124;BME280;6627;50.920;12.050;2023-03-21T11:47:51;98716.81;;;23.81;36.56
13124;BME280;6627;50.920;12.050;2023-03-21T11:50:27;98796.13;;;24.64;35.37
13124;BME280;6627;50.920;12.050;2023-03-21T11:53:15;98834.13;;;24.78;36.19
13124;BME280;6627;50.920;12.050;2023-03-21T11:56:03;98532.91;;;23.04;37.22
13124;BME280;6627;50.920;12.050;2023-03-21T11:58:48;98774.69;;;24.36;36.76
13124;BME280;6627;50.920;12.050;2023-03-21T12:01:31;98730.38;;;24.33;36.24
13124;BME280;6627;50.920;12.050;2023-03-21T12:04:19;98754.19;;;24.59;35.47
13124;BME280;6627;50.920;12.050;2023-03-21T12:06:52;98755.38;;;24.94;34.87
13124;BME280;6627;50.920;12.050;2023-03-21T12:09:34;98737.56;;;24.80;35.08
13124;BME280;6627;50.920;12.050;2023-03-21T12:12:17;98763.69;;;25.01;34.92
13124;BME280;6627;50.920;12.050;2023-03-21T12:15:00;98667.94;;;24.57;35.40
13124;BME280;6627;50.920;12.050;2023-03-21T12:17:42;98747.06;;;24.86;35.74
13124;BME280;6627;50.920;12.050;2023-03-21T12:20:24;98701.53;;;25.02;34.48
13124;BME280;6627;50.920;12.050;2023-03-21T12:23:11;98763.59;;;25.58;34.06
13124;BME280;6627;50.920;12.050;2023-03-21T12:25:49;98636.28;;;24.79;34.82
13124;BME280;6627;50.920;12.050;2023-03-21T12:28:36;98484.06;;;24.11;34.79
13124;BME280;6627;50.920;12.050;2023-03-21T12:31:16;98595.09;;;24.78;34.14
13124;BME280;6627;50.920;12.050;2023-03-21T12:34:05;98702.22;;;25.49;34.19
13124;BME280;6627;50.920;12.050;2023-03-21T12:36:56;98611.66;;;25.03;34.05
13124;BME280;6627;50.920;12.050;2023-03-21T12:39:30;98763.47;;;26.01;32.85
13124;BME280;6627;50.920;12.050;2023-03-21T12:42:35;98589.78;;;25.33;32.81
13124;BME280;6627;50.920;12.050;2023-03-21T12:45:15;98642.78;;;25.50;33.32
13124;BME280;6627;50.920;12.050;2023-03-21T12:47:53;98733.88;;;26.42;32.28
13124;BME280;6627;50.920;12.050;2023-03-21T12:50:26;98687.22;;;26.16;33.20
13124;BME280;6627;50.920;12.050;2023-03-21T12:53:13;98647.28;;;26.03;32.78
13124;BME280;6627;50.920;12.050;2023-03-21T12:55:45;98533.78;;;25.60;33.14
13124;BME280;6627;50.920;12.050;2023-03-21T12:58:18;98454.91;;;25.02;33.71
13124;BME280;6627;50.920;12.050;2023-03-21T13:00:52;98558.78;;;25.56;33.53
13124;BME280;6627;50.920;12.050;2023-03-21T13:03:25;98547.31;;;25.51;33.52
13124;BME280;6627;50.920;12.050;2023-03-21T13:05:58;98532.13;;;25.70;32.70
13124;BME280;6627;50.920;12.050;2023-03-21T13:08:32;98514.94;;;25.33;33.76
13124;BME280;6627;50.920;12.050;2023-03-21T13:11:03;98533.13;;;25.38;34.08
13124;BME280;6627;50.920;12.050;2023-03-21T13:13:35;98632.53;;;26.16;33.15
13124;BME280;6627;50.920;12.050;2023-03-21T13:16:08;98538.59;;;25.52;34.02
13124;BME280;6627;50.920;12.050;2023-03-21T13:18:51;98620.56;;;26.23;32.81
13124;BME280;6627;50.920;12.050;2023-03-21T13:21:34;98562.06;;;26.00;32.74
13124;BME280;6627;50.920;12.050;2023-03-21T13:24:17;98648.97;;;26.45;32.55
13124;BME280;6627;50.920;12.050;2023-03-21T13:26:49;98355.72;;;24.75;33.79
13124;BME280;6627;50.920;12.050;2023-03-21T13:29:24;98471.38;;;25.30;34.02
13124;BME280;6627;50.920;12.050;2023-03-21T13:31:55;98427.56;;;25.11;34.00